Data for 04/03/2018

Time Sea-Level Adjusted Pressure Absolute Pressure Temperature Relative Humidity Dew Point   
(mb) (inHg) (mb) (inHg) (C) (F) (%) (C) (F)
00:05 1017 30.03 846 24.98 -12.4 9.7 84 -14.6 5.8
00:10 1017 30.03 846 24.98 -12.1 10.2 84 -14.4 6.1
00:15 1017 30.03 846 24.98 -11.8 10.7 81 -14.5 6
00:20 1017 30.03 847 25.01 -11.6 11 80 -14.4 6.1
00:25 1017 30.03 847 25.01 -11.3 11.7 79 -14.2 6.5
00:30 1017 30.03 847 25.01 -11 12.2 79 -13.9 6.9
00:35 1017 30.03 847 25.01 -10.7 12.8 79 -13.6 7.5
00:40 1017 30.03 847 25.01 -10.6 12.9 79 -13.7 7.4
00:45 1017 30.03 847 25.01 -10.7 12.7 78 -13.8 7.1
00:50 1017 30.03 847 25.01 -11.2 11.8 79 -14.1 6.5
00:55 1018 30.06 847 25.01 -11.7 10.9 81 -14.3 6.2
01:00 1018 30.06 847 25.01 -11.9 10.5 82 -14.4 6.1
01:05 1018 30.06 847 25.01 -12.1 10.3 83 -14.4 6
01:10 1018 30.06 847 25.01 -12.2 10.1 84 -14.4 6
01:15 1018 30.06 847 25.01 -12.3 9.8 85 -14.4 6.1
01:20 1018 30.06 847 25.01 -12.2 10 83 -14.5 5.9
01:25 1018 30.06 847 25.01 -12.3 9.8 84 -14.5 5.9
01:30 1018 30.06 847 25.01 -12.1 10.2 84 -14.3 6.3
01:35 1018 30.06 847 25.01 -11.7 10.9 84 -13.9 7
01:40 1018 30.06 847 25.01 -11.3 11.7 82 -13.8 7.2
01:45 1018 30.06 847 25.01 -11.1 12 82 -13.5 7.6
01:50 1018 30.06 847 25.01 -10.8 12.5 82 -13.4 7.9
01:55 1018 30.06 847 25.01 -10.7 12.8 81 -13.4 8
02:00 1018 30.06 847 25.01 -10.7 12.8 81 -13.3 8
02:05 1018 30.06 847 25.01 -10.8 12.7 81 -13.4 7.9
02:10 1018 30.06 847 25.01 -10.9 12.4 81 -13.5 7.8
02:15 1018 30.06 847 25.01 -10.9 12.3 81 -13.5 7.7
02:20 1018 30.06 847 25.01 -11.1 12 82 -13.7 7.4
02:25 1018 30.06 847 25.01 -11.3 11.7 82 -13.8 7.1
02:30 1018 30.06 847 25.01 -11.4 11.5 82 -13.9 6.9
02:35 1018 30.06 847 25.01 -11.4 11.4 81 -14 6.8
02:40 1018 30.06 847 25.01 -11.5 11.2 82 -14.1 6.7
02:45 1018 30.06 847 25.01 -11.4 11.4 83 -13.8 7.1
02:50 1018 30.06 847 25.01 -11.3 11.8 82 -13.7 7.3
02:55 1018 30.06 847 25.01 -11.3 11.8 82 -13.8 7.2
03:00 1018 30.06 847 25.01 -11.4 11.6 82 -13.8 7.2
03:05 1018 30.06 847 25.01 -11.4 11.4 82 -13.9 6.9
03:10 1018 30.06 847 25.01 -11.5 11.4 82 -13.9 6.9
03:15 1018 30.06 847 25.01 -11.4 11.5 82 -13.9 7
03:20 1018 30.06 847 25.01 -11.4 11.4 83 -13.7 7.3
03:25 1018 30.06 847 25.01 -11.5 11.2 82 -14 6.8
03:30 1018 30.06 847 25.01 -11.6 11.1 84 -13.8 7.1
03:35 1018 30.06 847 25.01 -11.6 11.1 84 -13.8 7.2
03:40 1018 30.06 847 25.01 -11.6 11 84 -13.8 7.1
03:45 1018 30.06 847 25.01 -11.6 11.2 85 -13.6 7.5
03:50 1018 30.06 847 25.01 -11.5 11.4 83 -13.8 7.1
03:55 1018 30.06 848 25.04 -11.5 11.4 83 -13.8 7.1
04:00 1018 30.06 848 25.04 -11.5 11.2 82 -14 6.9
04:05 1018 30.06 848 25.04 -11.6 11 82 -14.1 6.6
04:10 1018 30.06 848 25.04 -11.9 10.7 81 -14.4 6
04:15 1019 30.09 848 25.04 -12.2 10 81 -14.8 5.4
04:20 1019 30.09 848 25.04 -12.4 9.6 83 -14.8 5.3
04:25 1019 30.09 848 25.04 -12.8 9 85 -14.9 5.3
04:30 1019 30.09 848 25.04 -13.4 8 86 -15.2 4.6
04:35 1019 30.09 848 25.04 -13.2 8.2 86 -15.1 4.8
04:40 1019 30.09 848 25.04 -13.2 8.2 87 -15 5
04:45 1019 30.09 848 25.04 -13 8.6 86 -14.8 5.3
04:50 1019 30.09 848 25.04 -13 8.7 86 -14.9 5.3
04:55 1019 30.09 848 25.04 -12.9 8.9 86 -14.7 5.5
05:00 1019 30.09 848 25.04 -12.7 9.2 86 -14.5 5.8
05:05 1019 30.09 848 25.04 -12.5 9.4 84 -14.7 5.5
05:10 1019 30.09 848 25.04 -12.7 9.1 85 -14.7 5.5
05:15 1019 30.09 848 25.04 -12.6 9.4 85 -14.6 5.7
05:20 1019 30.09 848 25.04 -12.6 9.4 83 -14.9 5.2
05:25 1019 30.09 848 25.04 -13 8.6 81 -15.6 4
05:30 1019 30.09 848 25.04 -13 8.6 85 -15.1 4.9
05:35 1019 30.09 848 25.04 -12.6 9.2 82 -15.1 4.8
05:40 1019 30.09 848 25.04 -12.5 9.6 82 -14.9 5.2
05:45 1019 30.09 848 25.04 -12.5 9.6 83 -14.8 5.3
05:50 1019 30.09 848 25.04 -12.4 9.6 83 -14.7 5.5
05:55 1019 30.09 848 25.04 -12.1 10.2 82 -14.6 5.8
06:00 1019 30.09 848 25.04 -11.9 10.7 83 -14.2 6.4
06:05 1019 30.09 848 25.04 -11.5 11.3 80 -14.3 6.2
06:10 1019 30.09 848 25.04 -12 10.5 82 -14.5 6
06:15 1019 30.09 848 25.04 -11.8 10.8 80 -14.6 5.7
06:20 1019 30.09 848 25.04 -11.6 11.1 79 -14.5 5.8
06:25 1019 30.09 848 25.04 -11.5 11.2 79 -14.5 5.9
06:30 1019 30.09 848 25.04 -11.2 11.8 78 -14.4 6.2
06:35 1019 30.09 848 25.04 -11.1 12.1 78 -14.1 6.6
06:40 1019 30.09 848 25.04 -10.6 12.9 76 -14 6.8
06:45 1019 30.09 848 25.04 -10.2 13.6 74 -14.1 6.7
06:50 1019 30.09 848 25.04 -10.1 13.9 74 -13.9 6.9
06:55 1019 30.09 848 25.04 -10.3 13.5 75 -13.9 6.9
07:00 1019 30.09 848 25.04 -10.3 13.5 75 -13.9 7.1
07:05 1019 30.09 848 25.04 -10.5 13.2 75 -14.1 6.6
07:10 1019 30.09 848 25.04 -10.4 13.2 74 -14.3 6.3
07:15 1019 30.09 848 25.04 -10.5 13.1 74 -14.3 6.3
07:20 1019 30.09 848 25.04 -10.6 13 74 -14.4 6.1
07:25 1019 30.09 848 25.04 -10.6 12.9 75 -14.2 6.4
07:30 1019 30.09 848 25.04 -10.2 13.6 73 -14.2 6.5
07:35 1019 30.09 848 25.04 -9.8 14.5 71 -14 6.8
07:40 1019 30.09 848 25.04 -9.7 14.6 72 -13.9 7
07:45 1019 30.09 848 25.04 -9.4 15 70 -13.9 6.9
07:50 1019 30.09 848 25.04 -9.1 15.7 68 -13.9 7
07:55 1019 30.09 848 25.04 -8.8 16.2 68 -13.7 7.3
08:00 1019 30.09 848 25.04 -8.9 16 69 -13.6 7.5
08:05 1019 30.09 848 25.04 -8.9 16 69 -13.6 7.4
08:10 1019 30.09 848 25.04 -8.8 16.2 70 -13.2 8.2
08:15 1019 30.09 848 25.04 -9.1 15.6 71 -13.5 7.7
08:20 1019 30.09 848 25.04 -9.4 15.2 70 -13.8 7.2
08:25 1019 30.09 848 25.04 -9.1 15.6 70 -13.6 7.6
08:30 1019 30.09 848 25.04 -8.3 17.1 68 -13.2 8.2
08:35 1019 30.09 848 25.04 -7.5 18.5 65 -12.9 8.7
08:40 1019 30.09 848 25.04 -6.8 19.7 65 -12.4 9.7
08:45 1019 30.09 848 25.04 -6.6 20.2 66 -11.9 10.6
08:50 1019 30.09 848 25.04 -6.7 20 67 -11.8 10.7
08:55 1019 30.09 848 25.04 -6.9 19.5 67 -12.1 10.2
09:00 1019 30.09 848 25.04 -6.8 19.8 67 -12 10.4
09:05 1019 30.09 848 25.04 -7 19.5 67 -12.2 10.1
09:10 1019 30.09 848 25.04 -6.4 20.4 64 -12.2 10
09:15 1019 30.09 848 25.04 -4.8 23.4 56 -12.2 10
09:20 1019 30.09 848 25.04 -3.8 25.2 50 -12.8 9
09:25 1019 30.09 848 25.04 -3.7 25.4 51 -12.3 9.8
09:30 1019 30.09 848 25.04 -3.5 25.7 51 -12.2 10.1
09:35 1019 30.09 848 25.04 -4.2 24.5 52 -12.5 9.4
09:40 1019 30.09 848 25.04 -4.2 24.4 52 -12.6 9.2
09:45 1019 30.09 848 25.04 -4.2 24.4 53 -12.5 9.5
09:50 1019 30.09 848 25.04 -4.1 24.7 54 -12.2 10.1
09:55 1019 30.09 848 25.04 -4 24.8 55 -11.9 10.6
10:00 1019 30.09 848 25.04 -4.2 24.5 54 -12.2 10
10:05 1019 30.09 848 25.04 -4 24.9 54 -12.1 10.3
10:10 1019 30.09 848 25.04 -3.3 26.1 51 -12.1 10.2
10:15 1019 30.09 848 25.04 -2.6 27.3 47 -12.5 9.5
10:20 1019 30.09 848 25.04 -2.4 27.7 50 -11.4 11.4
10:25 1019 30.09 848 25.04 -2.6 27.3 47 -12.5 9.4
10:30 1019 30.09 848 25.04 -1.9 28.6 46 -12.1 10.2
10:35 1019 30.09 848 25.04 -1.5 29.4 46 -11.7 11
10:40 1019 30.09 848 25.04 -1.5 29.3 44 -12.1 10.2
10:45 1019 30.09 848 25.04 -1.6 29.2 47 -11.5 11.4
10:50 1019 30.09 848 25.04 -1.6 29.1 46 -11.8 10.8
10:55 1019 30.09 848 25.04 -1.6 29.1 46 -11.9 10.6
11:00 1019 30.09 848 25.04 -1.1 30.1 44 -11.9 10.5
11:05 1019 30.09 848 25.04 -0.6 31 44 -11.5 11.3
11:10 1019 30.09 848 25.04 -0.1 31.8 42 -11.4 11.5
11:15 1019 30.09 848 25.04 0 32 43 -11.2 11.8
11:20 1019 30.09 848 25.04 -0.4 31.2 48 -10.1 13.8
11:25 1019 30.09 848 25.04 -0.7 30.7 47 -10.8 12.6
11:30 1019 30.09 848 25.04 -0.3 31.4 41 -12.2 10.1
11:35 1019 30.09 848 25.04 0 32.1 44 -10.8 12.6
11:40 1019 30.09 848 25.04 0.5 32.9 41 -11.2 11.9
11:45 1019 30.09 848 25.04 0.4 32.8 41 -11.2 11.8
11:50 1019 30.09 848 25.04 -0.3 31.5 39 -12.8 9
11:55 1019 30.09 848 25.04 -0.7 30.8 43 -11.8 10.7
12:00 1019 30.09 848 25.04 0.8 33.4 36 -12.8 9
12:05 1019 30.09 848 25.04 1.6 34.9 36 -12 10.3
12:10 1019 30.09 848 25.04 1.9 35.5 34 -12.4 9.6
12:15 1019 30.09 848 25.04 1.5 34.7 41 -10.4 13.3
12:20 1019 30.09 848 25.04 1.3 34.3 36 -12.1 10.2
12:25 1019 30.09 848 25.04 1.2 34.1 35 -12.8 9
12:30 1019 30.09 848 25.04 1.3 34.3 37 -11.7 10.9
12:35 1018 30.06 848 25.04 0.1 32.2 42 -11.5 11.4
12:40 1018 30.06 848 25.04 0.4 32.6 40 -11.8 10.8
12:45 1018 30.06 848 25.04 1 33.7 37 -12 10.3
12:50 1018 30.06 848 25.04 0.7 33.3 40 -11.5 11.2
12:55 1018 30.06 848 25.04 0.8 33.5 36 -12.5 9.5
13:00 1018 30.06 848 25.04 1.5 34.7 34 -12.9 8.8
13:05 1018 30.06 847 25.01 1.7 35 34 -12.8 9
13:10 1018 30.06 847 25.01 1 33.8 38 -11.7 11
13:15 1018 30.06 847 25.01 1.5 34.7 36 -11.9 10.6
13:20 1018 30.06 847 25.01 2.1 35.8 32 -12.8 9
13:25 1018 30.06 847 25.01 1.1 33.9 38 -11.8 10.7
13:30 1018 30.06 847 25.01 1.6 35 33 -12.8 8.9
13:35 1018 30.06 847 25.01 2.5 36.6 32 -12.6 9.3
13:40 1018 30.06 847 25.01 2.9 37.3 32 -12.1 10.2
13:45 1018 30.06 847 25.01 2.5 36.6 31 -12.9 8.8
13:50 1018 30.06 847 25.01 3 37.4 31 -12.6 9.4
13:55 1018 30.06 847 25.01 3 37.5 33 -11.9 10.6
14:00 1018 30.06 847 25.01 1.4 34.5 34 -12.8 8.9
14:05 1018 30.06 847 25.01 2.1 35.7 33 -12.7 9.2
14:10 1018 30.06 847 25.01 3 37.5 30 -13.1 8.3
14:15 1018 30.06 847 25.01 3.1 37.6 32 -12.1 10.2
14:20 1018 30.06 847 25.01 3.2 37.7 33 -11.7 10.9
14:25 1018 30.06 847 25.01 3.2 37.8 29 -13.2 8.3
14:30 1018 30.06 847 25.01 2.3 36.2 29 -13.8 7.2
14:35 1018 30.06 847 25.01 2.5 36.6 32 -12.5 9.4
14:40 1018 30.06 847 25.01 2.3 36.2 33 -12.3 9.9
14:45 1018 30.06 847 25.01 1.8 35.3 34 -12.6 9.4
14:50 1018 30.06 847 25.01 2.2 36 31 -13.3 8.1
14:55 1018 30.06 847 25.01 3.1 37.5 29 -13.3 8
15:00 1018 30.06 847 25.01 2.9 37.2 31 -12.7 9.1
15:05 1018 30.06 847 25.01 2.9 37.2 28 -13.8 7.1
15:10 1017 30.03 847 25.01 3.2 37.7 31 -12.4 9.8
15:15 1017 30.03 847 25.01 3.2 37.7 30 -12.8 8.9
15:20 1017 30.03 847 25.01 3.2 37.8 30 -12.6 9.4
15:25 1017 30.03 847 25.01 3.1 37.6 29 -13.2 8.2
15:30 1017 30.03 847 25.01 3 37.4 28 -13.8 7.2
15:35 1017 30.03 847 25.01 2.4 36.3 32 -12.8 9
15:40 1017 30.03 846 24.98 2 35.7 29 -14.1 6.7
15:45 1017 30.03 846 24.98 2.4 36.2 32 -12.9 8.8
15:50 1017 30.03 846 24.98 3.4 38.1 30 -12.6 9.3
15:55 1017 30.03 846 24.98 4.7 40.4 28 -12.5 9.6
16:00 1017 30.03 846 24.98 4.6 40.4 28 -12.4 9.6
16:05 1017 30.03 846 24.98 4.6 40.2 27 -13.1 8.5
16:10 1017 30.03 846 24.98 5.1 41.2 26 -13 8.6
16:15 1017 30.03 846 24.98 5 41 27 -12.6 9.4
16:20 1017 30.03 846 24.98 4.8 40.6 28 -12.2 10.1
16:25 1017 30.03 846 24.98 5.2 41.4 26 -12.6 9.4
16:30 1017 30.03 846 24.98 5.7 42.3 22 -14.2 6.4
16:35 1017 30.03 846 24.98 5.3 41.5 24 -13.7 7.3
16:40 1017 30.03 846 24.98 4.3 39.8 24 -14.7 5.6
16:45 1017 30.03 846 24.98 5 40.9 24 -13.9 6.9
16:50 1017 30.03 846 24.98 5.5 41.9 24 -13.6 7.6
16:55 1016 30 846 24.98 5.1 41.1 25 -13.3 8.1
17:00 1016 30 846 24.98 5 41 26 -13.2 8.3
17:05 1016 30 846 24.98 4.8 40.6 25 -13.5 7.6
17:10 1016 30 846 24.98 5.3 41.6 26 -12.8 8.9
17:15 1016 30 845 24.95 5.5 41.9 25 -13 8.6
17:20 1016 30 845 24.95 5.3 41.5 25 -13 8.5
17:25 1016 30 845 24.95 5.7 42.2 26 -12.6 9.3
17:30 1016 30 845 24.95 5.4 41.7 27 -12.4 9.8
17:35 1016 30 845 24.95 5.4 41.7 28 -11.8 10.7
17:40 1016 30 845 24.95 5.6 42 27 -12.2 10
17:45 1016 30 845 24.95 6 42.8 26 -12 10.4
17:50 1016 30 845 24.95 6.2 43.1 26 -12 10.5
17:55 1016 30 845 24.95 6.1 43.1 26 -11.9 10.6
18:00 1016 30 845 24.95 5.8 42.5 29 -10.8 12.6
18:05 1016 30 845 24.95 5.7 42.3 24 -13.3 8.1
18:10 1016 30 845 24.95 5.7 42.3 25 -13.1 8.5
18:15 1016 30 845 24.95 5.6 42.1 25 -12.9 8.7
18:20 1016 30 845 24.95 5.2 41.4 27 -12.1 10.2
18:25 1015 29.97 845 24.95 4.2 39.5 28 -12.9 8.7
18:30 1015 29.97 845 24.95 4 39.1 31 -11.5 11.3
18:35 1015 29.97 845 24.95 4.1 39.4 30 -12 10.5
18:40 1015 29.97 845 24.95 4.2 39.5 29 -12.2 10
18:45 1015 29.97 845 24.95 4.5 40 30 -11.9 10.6
18:50 1015 29.97 845 24.95 4.3 39.8 31 -11.3 11.6
18:55 1015 29.97 845 24.95 3.7 38.6 34 -10.9 12.4
19:00 1015 29.97 845 24.95 3 37.5 33 -11.7 11
19:05 1015 29.97 845 24.95 3 37.4 33 -11.6 11.1
19:10 1015 29.97 845 24.95 3 37.3 32 -12.1 10.2
19:15 1015 29.97 844 24.92 2.9 37.2 35 -11.1 12.1
19:20 1015 29.97 844 24.92 2.9 37.2 39 -9.8 14.4
19:25 1015 29.97 844 24.92 2.8 37 35 -11.4 11.5
19:30 1015 29.97 844 24.92 2.5 36.6 34 -11.9 10.5
19:35 1015 29.97 844 24.92 2.5 36.4 38 -10.5 13
19:40 1015 29.97 844 24.92 2.6 36.7 38 -10.4 13.4
19:45 1015 29.97 844 24.92 2.6 36.7 38 -10.3 13.5
19:50 1015 29.97 844 24.92 2.5 36.5 39 -10.1 13.9
19:55 1015 29.97 844 24.92 2.5 36.5 35 -11.3 11.6
20:00 1015 29.97 844 24.92 2.5 36.4 38 -10.4 13.2
20:05 1015 29.97 844 24.92 2.4 36.3 35 -11.7 10.9
20:10 1015 29.97 844 24.92 2.3 36.2 33 -12.4 9.8
20:15 1015 29.97 844 24.92 2.3 36.1 39 -10.3 13.5
20:20 1015 29.97 844 24.92 2.1 35.8 46 -8.4 16.9
20:25 1015 29.97 844 24.92 1.9 35.4 36 -11.6 11.1
20:30 1015 29.97 844 24.92 2.1 35.7 34 -12.2 10
20:35 1015 29.97 844 24.92 2.2 36 38 -10.8 12.6
20:40 1015 29.97 844 24.92 2 35.7 37 -11.1 12.1
20:45 1015 29.97 844 24.92 1.9 35.5 41 -10 14.1
20:50 1015 29.97 844 24.92 1.8 35.3 39 -10.7 12.7
20:55 1015 29.97 844 24.92 2 35.5 41 -10 14
21:00 1015 29.97 844 24.92 1.9 35.5 40 -10.2 13.6
21:05 1015 29.97 844 24.92 1.9 35.4 38 -10.9 12.4
21:10 1015 29.97 844 24.92 2.1 35.8 38 -10.7 12.7
21:15 1015 29.97 844 24.92 2.1 35.9 42 -9.5 14.8
21:20 1015 29.97 844 24.92 2.1 35.8 40 -10 13.9
21:25 1015 29.97 844 24.92 2.1 35.7 43 -9.2 15.5
21:30 1015 29.97 844 24.92 1.7 35.1 43 -9.7 14.6
21:35 1015 29.97 844 24.92 1.7 35.1 43 -9.5 14.8
21:40 1015 29.97 844 24.92 2 35.6 44 -9 15.7
21:45 1015 29.97 844 24.92 2 35.5 46 -8.6 16.5
21:50 1015 29.97 844 24.92 1.6 34.9 51 -7.4 18.6
21:55 1015 29.97 844 24.92 1 33.7 55 -7 19.3
22:00 1015 29.97 844 24.92 0.6 33.1 56 -7.1 19.2
22:05 1015 29.97 844 24.92 0.7 33.2 54 -7.7 18.1
22:10 1015 29.97 844 24.92 0.8 33.5 54 -7.5 18.5
22:15 1015 29.97 844 24.92 1 33.7 48 -8.8 16.2
22:20 1015 29.97 844 24.92 1.5 34.7 47 -8.6 16.4
22:25 1015 29.97 844 24.92 1.9 35.5 52 -7 19.5
22:30 1015 29.97 844 24.92 1.5 34.7 54 -6.8 19.7
22:35 1015 29.97 844 24.92 0.8 33.5 52 -8 17.7
22:40 1015 29.97 844 24.92 1.1 34 51 -8 17.6
22:45 1015 29.97 844 24.92 1.2 34.2 54 -7.1 19.2
22:50 1015 29.97 844 24.92 1.1 34 52 -7.7 18.2
22:55 1015 29.97 844 24.92 1.2 34.1 46 -9.1 15.6
23:00 1015 29.97 844 24.92 1.5 34.7 46 -8.8 16.1
23:05 1015 29.97 844 24.92 1.7 35 46 -8.8 16.1
23:10 1015 29.97 844 24.92 1.8 35.2 48 -8.2 17.3
23:15 1015 29.97 844 24.92 1.5 34.8 47 -8.5 16.7
23:20 1015 29.97 844 24.92 1.6 34.8 48 -8.4 16.9
23:25 1015 29.97 844 24.92 1.6 34.8 42 -10.1 13.8
23:30 1015 29.97 844 24.92 2.2 35.9 39 -10.5 13.1
23:35 1015 29.97 844 24.92 2.9 37.2 35 -11.3 11.7
23:40 1015 29.97 844 24.92 3.3 37.9 32 -11.9 10.6
23:45 1015 29.97 844 24.92 3.4 38.2 33 -11.2 11.8
23:50 1015 29.97 844 24.92 3.3 37.9 34 -11.2 11.9
23:55 1015 29.97 844 24.92 3.1 37.6 36 -10.6 13
24:00 1015 29.97 844 24.92 3 37.4 35 -11 12.2